.
WxDataArchive / Data Records for 2008-05-27
2008-05-26 May 2008 2008-05-28

Data Records for Tuesday, 27 May 2008

Time	Temp	Chill	HIndex	Humid	Dewpt	 Wind 	HiWind	WindDir	Rain 	Barom 
-----	----	-----	------	-----	-----	------	------	-------	-----	----- 
00:00	68.4	68.4	68.4	87	64.4	1	3	248	0.00	29.813 
00:05	68.3	68.3	68.3	87	64.3	1	3	248	0.00	29.806 
00:10	68.3	68.3	68.3	87	64.3	1	3	248	0.00	29.805 
00:15	68.3	68.3	68.3	87	64.3	1	2	248	0.00	29.804 
00:20	68.3	68.3	68.3	87	64.3	1	3	248	0.00	29.802 
00:25	68.3	68.3	68.3	87	64.3	1	3	248	0.00	29.801 
00:30	68.1	68.1	68.1	87	64.1	1	3	248	0.00	29.802 
00:35	68.1	68.1	68.1	88	64.4	1	2	248	0.00	29.803 
00:40	68.1	68.1	68.1	88	64.4	1	4	270	0.00	29.803 
00:45	68.1	68.1	68.1	88	64.4	1	5	248	0.00	29.806 
00:50	67.9	67.9	67.9	88	64.2	0	2	248	0.00	29.805 
00:55	67.9	67.9	67.9	88	64.2	0	1	248	0.00	29.805 
01:00	67.8	67.8	67.8	88	64.1	1	2	248	0.00	29.805 
01:05	67.8	67.8	67.8	88	64.1	0	2	248	0.00	29.806 
01:10	67.6	67.6	67.6	88	63.9	0	3	248	0.00	29.805 
01:15	67.6	67.6	67.6	88	63.9	0	2	248	0.00	29.809 
01:20	67.6	67.6	67.6	88	63.9	0	2	270	0.00	29.816 
01:25	67.6	67.6	67.6	89	64.2	1	5	270	0.00	29.811 
01:30	67.4	67.4	67.4	89	64.0	0	2	248	0.00	29.816 
01:35	67.4	67.4	67.4	89	64.0	1	3	248	0.00	29.815 
01:40	67.4	67.4	67.4	89	64.0	1	3	248	0.00	29.818 
01:45	67.3	67.3	67.3	89	63.9	0	1	248	0.00	29.816 
01:50	67.3	67.3	67.3	89	63.9	0	2	248	0.00	29.815 
01:55	67.3	67.3	67.3	89	63.9	0	2	248	0.00	29.817 
02:00	67.3	67.3	67.3	89	63.9	0	2	248	0.00	29.816 
02:05	67.3	67.3	67.3	89	63.9	0	2	248	0.00	29.816 
02:10	67.1	67.1	67.1	90	64.1	0	3	248	0.00	29.814 
02:15	67.1	67.1	67.1	90	64.1	0	3	248	0.00	29.816 
02:20	67.3	67.3	67.3	90	64.3	1	3	248	0.00	29.816 
02:25	67.1	67.1	67.1	90	64.1	0	1	248	0.00	29.817 
02:30	67.1	67.1	67.1	90	64.1	0	3	248	0.00	29.816 
02:35	67.1	67.1	67.1	90	64.1	0	3	248	0.00	29.813 
02:40	67.1	67.1	67.1	90	64.1	0	2	248	0.00	29.812 
02:45	66.9	66.9	66.9	91	64.2	0	4	248	0.00	29.810 
02:50	66.9	66.9	66.9	91	64.2	0	3	248	0.00	29.811 
02:55	66.8	66.8	66.8	91	64.1	0	2	248	0.00	29.811 
03:00	66.8	66.8	66.8	91	64.1	0	2	248	0.00	29.810 
03:05	66.8	66.8	66.8	91	64.1	0	2	248	0.00	29.818 
03:10	66.8	66.8	66.8	91	64.1	0	2	248	0.00	29.820 
03:15	66.8	66.8	66.8	91	64.1	0	2	248	0.00	29.820 
03:20	66.8	66.8	66.8	91	64.1	0	3	248	0.00	29.822 
03:25	66.8	66.8	66.8	91	64.1	1	3	248	0.00	29.821 
03:30	66.8	66.8	66.8	91	64.1	1	2	248	0.00	29.822 
03:35	66.8	66.8	66.8	91	64.1	0	3	248	0.00	29.822 
03:40	66.6	66.6	66.6	91	63.9	0	2	248	0.00	29.822 
03:45	66.6	66.6	66.6	92	64.2	0	1	248	0.00	29.822 
03:50	66.4	66.4	66.4	92	64.0	0	2	248	0.00	29.823 
03:55	66.4	66.4	66.4	92	64.0	0	2	248	0.00	29.824 
04:00	66.4	66.4	66.4	92	64.0	0	2	248	0.00	29.824 
04:05	66.3	66.3	66.3	92	63.9	0	2	248	0.00	29.826 
04:10	66.3	66.3	66.3	92	63.9	0	1	248	0.00	29.826 
04:15	66.1	66.1	66.1	92	63.7	0	1	248	0.00	29.825 
04:20	66.1	66.1	66.1	92	63.7	0	1	248	0.00	29.826 
04:25	66.1	66.1	66.1	93	64.0	0	2	248	0.00	29.826 
04:30	66.1	66.1	66.1	93	64.0	0	2	248	0.00	29.826 
04:35	66.1	66.1	66.1	93	64.0	0	2	248	0.00	29.831 
04:40	66.1	66.1	66.1	93	64.0	0	2	248	0.00	29.836 
04:45	66.3	66.3	66.3	93	64.2	0	1	248	0.00	29.831 
04:50	66.3	66.3	66.3	93	64.2	0	2	248	0.00	29.834 
04:55	66.4	66.4	66.4	93	64.3	0	1	248	0.00	29.839 
05:00	66.6	66.6	66.6	93	64.5	0	2	248	0.00	29.835 
05:05	66.6	66.6	66.6	93	64.5	1	2	270	0.00	29.839 
05:10	66.6	66.6	66.6	93	64.5	1	2	292	0.00	29.841 
05:15	66.8	66.8	66.8	92	64.4	1	2	248	0.00	29.845 
05:20	66.9	66.9	66.9	92	64.5	1	2	248	0.00	29.847 
05:25	66.9	66.9	66.9	92	64.5	0	2	248	0.00	29.848 
05:30	66.9	66.9	66.9	92	64.5	0	2	248	0.00	29.851 
05:35	66.9	66.9	66.9	92	64.5	0	2	292	0.00	29.854 
05:40	67.1	67.1	67.1	92	64.7	0	3	315	0.00	29.854 
05:45	67.1	67.1	67.1	91	64.4	1	4	248	0.00	29.855 
05:50	67.1	67.1	67.1	91	64.4	0	3	248	0.00	29.855 
05:55	67.3	67.3	67.3	91	64.6	0	1	248	0.00	29.856 
06:00	67.3	67.3	67.3	90	64.3	0	2	270	0.00	29.861 
06:05	67.3	67.3	67.3	90	64.3	0	2	292	0.00	29.864 
06:10	67.4	67.4	67.4	89	64.0	0	2	292	0.00	29.869 
06:15	67.4	67.4	67.4	89	64.0	0	2	292	0.00	29.871 
06:20	67.4	67.4	67.4	89	64.0	0	1	270	0.00	29.871 
06:25	67.4	67.4	67.4	89	64.0	0	2	270	0.00	29.872 
06:30	67.4	67.4	67.4	89	64.0	0	1	270	0.00	29.872 
06:35	67.3	67.3	67.3	89	63.9	0	2	270	0.00	29.872 
06:40	67.3	67.3	67.3	89	63.9	0	2	270	0.00	29.875 
06:45	67.3	67.3	67.3	89	63.9	0	1	270	0.00	29.879 
06:50	67.3	67.3	67.3	88	63.6	0	2	270	0.00	29.881 
06:55	67.4	67.4	67.4	88	63.7	0	1	270	0.00	29.883 
07:00	67.6	67.6	67.6	88	63.9	0	1	270	0.00	29.885 
07:05	67.6	67.6	67.6	87	63.6	0	3	292	0.00	29.889 
07:10	67.4	67.4	67.4	86	63.1	1	3	292	0.00	29.891 
07:15	67.3	67.3	67.3	86	63.0	1	3	292	0.00	29.892 
07:20	67.1	67.1	67.1	86	62.8	0	2	292	0.00	29.892 
07:25	66.9	66.9	66.9	85	62.2	0	2	292	0.00	29.892 
07:30	66.9	66.9	66.9	86	62.6	0	2	292	0.00	29.895 
07:35	66.6	66.6	66.6	82	60.9	0	2	292	0.00	29.903 
07:40	66.6	66.6	66.6	81	60.6	1	3	45	0.00	29.905 
07:45	66.6	66.6	66.6	79	59.9	1	4	45	0.00	29.908 
07:50	66.6	66.6	66.6	77	59.2	2	7	112	0.00	29.909 
07:55	66.4	66.4	66.4	77	59.0	1	3	135	0.00	29.912 
08:00	66.4	66.4	66.4	76	58.6	1	6	112	0.00	29.919 
08:05	66.4	66.4	66.4	77	59.0	1	3	112	0.00	29.924 
08:10	66.4	66.4	66.4	77	59.0	0	2	112	0.00	29.926 
08:15	66.6	66.6	66.6	76	58.8	1	6	135	0.00	29.927 
08:20	66.4	66.4	66.4	76	58.6	1	4	0	0.00	29.935 
08:25	66.1	66.1	66.1	75	57.9	0	3	315	0.00	29.940 
08:30	65.8	65.8	65.8	76	58.0	1	5	270	0.00	29.943 
08:35	65.5	65.5	65.5	74	57.0	1	4	68	0.00	29.946 
08:40	64.7	64.7	64.7	74	56.2	1	4	68	0.00	29.954 
08:45	64.3	64.3	64.3	74	55.8	1	4	338	0.00	29.956 
08:50	63.9	63.9	63.9	75	55.8	0	2	45	0.00	29.958 
08:55	63.7	63.7	63.7	76	56.0	0	1	315	0.00	29.959 
09:00	63.7	63.7	63.7	75	55.6	0	3	315	0.00	29.959 
09:05	63.7	63.7	63.7	76	56.0	1	5	315	0.00	29.963 
09:10	63.7	63.7	63.7	77	56.3	1	4	135	0.00	29.967 
09:15	63.7	63.7	63.7	77	56.3	1	4	90	0.00	29.971 
09:20	63.1	63.1	63.1	78	56.1	3	11	90	0.00	29.974 
09:25	62.6	62.6	62.6	80	56.3	2	6	90	0.00	29.975 
09:30	62.3	62.3	62.3	80	56.0	2	7	112	0.00	29.979 
09:35	62.0	62.0	62.0	80	55.8	2	7	90	0.00	29.979 
09:40	61.8	61.8	61.8	80	55.6	3	12	112	0.00	29.980 
09:45	61.8	61.8	61.8	81	55.9	3	6	112	0.00	29.981 
09:50	62.0	62.0	62.0	80	55.8	2	5	112	0.00	29.984 
09:55	62.0	62.0	62.0	80	55.8	2	6	112	0.00	29.984 
10:00	62.0	62.0	62.0	78	55.1	2	6	90	0.00	29.986 
10:05	61.8	61.8	61.8	78	54.9	2	7	90	0.00	29.988 
10:10	62.0	62.0	62.0	79	55.4	1	3	90	0.00	29.994 
10:15	62.0	62.0	62.0	79	55.4	1	3	45	0.00	29.997 
10:20	62.1	62.1	62.1	79	55.5	1	4	45	0.00	30.002 
10:25	62.1	62.1	62.1	77	54.8	2	5	112	0.00	30.006 
10:30	62.1	62.1	62.1	78	55.2	1	3	112	0.00	30.007 
10:35	62.1	62.1	62.1	77	54.8	2	5	112	0.00	30.009 
10:40	62.1	62.1	62.1	77	54.8	1	5	112	0.00	30.010 
10:45	61.8	61.8	61.8	76	54.1	1	5	68	0.00	30.011 
10:50	61.6	61.6	61.6	77	54.3	1	4	112	0.00	30.012 
10:55	61.6	61.6	61.6	77	54.3	1	4	135	0.00	30.014 
11:00	61.6	61.6	61.6	76	54.0	1	4	112	0.00	30.017 
11:05	61.6	61.6	61.6	76	54.0	1	4	112	0.00	30.014 
11:10	61.6	61.6	61.6	75	53.6	2	5	135	0.00	30.014 
11:15	61.6	61.6	61.6	76	54.0	1	3	112	0.00	30.015 
11:20	61.8	61.8	61.8	75	53.8	1	4	112	0.00	30.015 
11:25	62.0	62.0	62.0	75	54.0	0	4	68	0.00	30.016 
11:30	62.0	62.0	62.0	74	53.6	1	8	0	0.00	30.020 
11:35	62.0	62.0	62.0	74	53.6	1	4	90	0.00	30.020 
11:40	62.1	62.1	62.1	74	53.7	1	3	90	0.00	30.018 
11:45	62.6	62.6	62.6	72	53.4	1	5	90	0.00	30.019 
11:50	63.2	63.2	63.2	73	54.4	1	3	112	0.00	30.018 
11:55	63.7	63.7	63.7	72	54.5	1	4	90	0.00	30.022 
12:00	64.2	64.2	64.2	71	54.6	1	4	112	0.00	30.020 
12:05	64.5	64.5	64.5	69	54.1	1	5	112	0.00	30.023 
12:10	64.5	64.5	64.5	69	54.1	2	6	135	0.00	30.021 
12:15	64.7	64.7	64.7	69	54.3	1	5	158	0.00	30.021 
12:20	64.5	64.5	64.5	66	52.9	1	3	112	0.00	30.022 
12:25	64.8	64.8	64.8	69	54.4	1	4	90	0.00	30.018 
12:30	65.0	65.0	65.0	67	53.8	1	7	112	0.00	30.017 
12:35	65.2	65.2	65.2	67	54.0	0	4	112	0.00	30.020 
12:40	65.6	65.6	65.6	66	53.9	0	2	292	0.00	30.020 
12:45	66.3	66.3	66.3	70	56.2	1	4	135	0.00	30.022 
12:50	66.1	66.1	66.1	64	53.6	1	5	45	0.00	30.027 
12:55	66.1	66.1	66.1	65	54.0	1	3	45	0.00	30.030 
13:00	66.4	66.4	66.4	63	53.4	1	4	68	0.00	30.032 
13:05	66.6	66.6	66.6	65	54.5	1	6	90	0.00	30.035 
13:10	66.9	66.9	66.9	64	54.3	1	7	112	0.00	30.034 
13:15	67.1	67.1	67.1	62	53.6	1	4	112	0.00	30.037 
13:20	66.6	66.6	66.6	62	53.2	2	4	112	0.00	30.038 
13:25	66.4	66.4	66.4	63	53.4	1	4	292	0.00	30.040 
13:30	66.0	66.0	66.0	64	53.5	1	4	292	0.00	30.044 
13:35	66.0	66.0	66.0	63	53.0	1	5	68	0.00	30.042 
13:40	66.0	66.0	66.0	65	53.9	1	5	68	0.00	30.043 
13:45	65.8	65.8	65.8	65	53.7	1	4	0	0.00	30.046 
13:50	65.6	65.6	65.6	64	53.1	1	4	45	0.00	30.045 
13:55	65.3	65.3	65.3	63	52.4	1	4	112	0.00	30.048 
14:00	65.2	65.2	65.2	64	52.7	1	3	45	0.00	30.049 
14:05	65.5	65.5	65.5	64	53.0	1	5	90	0.00	30.047 
14:10	66.4	66.4	66.4	64	53.8	1	3	112	0.00	30.040 
14:15	66.9	66.9	66.9	60	52.6	2	9	112	0.00	30.044 
14:20	66.3	66.3	66.3	61	52.4	1	5	68	0.00	30.053 
14:25	66.0	66.0	66.0	60	51.7	1	3	90	0.00	30.053 
14:30	66.3	66.3	66.3	59	51.5	1	6	90	0.00	30.051 
14:35	67.1	67.1	67.1	58	51.8	1	4	90	0.00	30.048 
14:40	67.3	67.3	67.3	59	52.5	2	5	135	0.00	30.049 
14:45	67.1	67.1	67.1	57	51.3	2	6	45	0.00	30.053 
14:50	67.4	67.4	67.4	55	50.7	1	6	68	0.00	30.053 
14:55	67.6	67.6	67.6	54	50.4	2	6	112	0.00	30.054 
15:00	66.9	66.9	66.9	55	50.2	1	5	135	0.00	30.052 
15:05	66.4	66.4	66.4	56	50.2	3	9	112	0.00	30.057 
15:10	66.1	66.1	66.1	55	49.5	2	5	135	0.00	30.056 
15:15	66.0	66.0	66.0	55	49.4	1	6	135	0.00	30.057 
15:20	66.0	66.0	66.0	54	48.9	1	4	45	0.00	30.061 
15:25	65.6	65.6	65.6	55	49.0	1	5	90	0.00	30.062 
15:30	65.0	65.0	65.0	56	48.9	1	5	45	0.00	30.070 
15:35	64.5	64.5	64.5	56	48.4	1	3	22	0.00	30.073 
15:40	63.7	63.7	63.7	57	48.2	1	4	135	0.00	30.071 
15:45	62.9	62.9	62.9	56	47.0	1	9	0	0.00	30.076 
15:50	62.3	62.3	62.3	58	47.3	1	2	90	0.00	30.077 
15:55	61.8	61.8	61.8	57	46.4	1	3	112	0.00	30.079 
16:00	61.3	61.3	61.3	58	46.4	1	3	315	0.00	30.090 
16:05	61.0	61.0	61.0	60	47.0	1	7	68	0.00	30.089 
16:10	60.1	60.1	60.1	60	46.2	1	6	68	0.00	30.092 
16:15	59.3	59.3	59.3	64	47.1	1	3	0	0.00	30.092 
16:20	58.6	58.6	58.6	68	48.1	1	3	135	0.00	30.089 
16:25	58.0	58.0	58.0	69	47.9	1	7	135	0.00	30.093 
16:30	57.3	57.3	57.3	73	48.7	1	7	112	0.00	30.094 
16:35	57.0	57.0	57.0	76	49.5	1	3	68	0.01	30.089 
16:40	56.6	56.6	56.6	77	49.5	1	5	112	0.00	30.086 
16:45	56.3	56.3	56.3	79	49.9	0	2	22	0.00	30.089 
16:50	56.2	56.2	56.2	79	49.8	1	3	45	0.00	30.091 
16:55	56.3	56.3	56.3	79	49.9	1	5	112	0.00	30.095 
17:00	56.5	56.5	56.5	79	50.1	1	4	45	0.00	30.096 
17:05	56.5	56.5	56.5	77	49.4	1	4	90	0.01	30.097 
17:10	56.6	56.6	56.6	78	49.8	1	3	90	0.00	30.101 
17:15	56.6	56.6	56.6	75	48.8	1	4	90	0.00	30.101 
17:20	56.7	56.7	56.7	76	49.2	1	3	112	0.00	30.102 
17:25	56.9	56.9	56.9	76	49.4	0	3	112	0.00	30.105 
17:30	56.9	56.9	56.9	74	48.7	1	3	112	0.00	30.107 
17:35	57.0	57.0	57.0	74	48.8	1	3	112	0.00	30.105 
17:40	57.0	57.0	57.0	74	48.8	1	3	90	0.00	30.104 
17:45	57.0	57.0	57.0	74	48.8	1	3	90	0.00	30.105 
17:50	56.9	56.9	56.9	71	47.6	1	5	68	0.00	30.103 
17:55	56.7	56.7	56.7	70	47.0	1	4	68	0.00	30.100 
18:00	56.6	56.6	56.6	70	46.9	1	4	68	0.00	30.105 
18:05	56.6	56.6	56.6	70	46.9	1	4	112	0.00	30.103 
18:10	56.7	56.7	56.7	68	46.3	1	3	112	0.00	30.103 
18:15	56.7	56.7	56.7	68	46.3	1	5	90	0.00	30.100 
18:20	56.9	56.9	56.9	67	46.1	1	5	112	0.00	30.101 
18:25	56.9	56.9	56.9	65	45.3	1	4	248	0.00	30.106 
18:30	56.9	56.9	56.9	65	45.3	1	7	135	0.00	30.109 
18:35	56.7	56.7	56.7	63	44.2	2	7	135	0.00	30.110 
18:40	56.5	56.5	56.5	63	44.1	2	8	135	0.00	30.110 
18:45	56.3	56.3	56.3	63	43.9	1	6	90	0.00	30.115 
18:50	56.2	56.2	56.2	64	44.2	1	5	135	0.00	30.117 
18:55	55.9	55.9	55.9	62	43.1	2	6	112	0.00	30.123 
19:00	55.7	55.7	55.7	63	43.3	1	5	112	0.00	30.125 
19:05	55.6	55.6	55.6	62	42.8	2	7	68	0.00	30.130 
19:10	55.6	55.6	55.6	61	42.4	2	6	68	0.00	30.130 
19:15	55.4	55.4	55.4	61	42.2	2	7	112	0.00	30.133 
19:20	55.3	55.3	55.3	62	42.5	1	5	112	0.00	30.139 
19:25	55.0	55.0	55.0	60	41.4	1	5	135	0.00	30.141 
19:30	54.8	54.8	54.8	61	41.6	1	6	112	0.00	30.145 
19:35	54.7	54.7	54.7	61	41.5	2	5	68	0.00	30.144 
19:40	54.4	54.4	54.4	61	41.2	2	5	68	0.00	30.146 
19:45	54.2	54.2	54.2	62	41.5	1	5	90	0.00	30.148 
19:50	54.1	54.1	54.1	62	41.4	1	5	22	0.00	30.156 
19:55	53.8	53.8	53.8	62	41.1	1	5	90	0.00	30.159 
20:00	53.6	53.6	53.6	62	40.9	1	6	68	0.00	30.161 
20:05	53.5	53.5	53.5	63	41.2	1	3	112	0.00	30.163 
20:10	53.3	53.3	53.3	63	41.0	1	4	135	0.00	30.165 
20:15	53.1	53.1	53.1	64	41.2	0	2	112	0.00	30.168 
20:20	52.8	52.8	52.8	64	41.0	0	4	135	0.00	30.174 
20:25	52.6	52.6	52.6	64	40.8	1	4	135	0.00	30.177 
20:30	52.3	52.3	52.3	64	40.5	0	2	135	0.00	30.180 
20:35	52.2	52.2	52.2	64	40.4	0	2	45	0.00	30.179 
20:40	52.0	52.0	52.0	64	40.2	0	1	45	0.00	30.180 
20:45	51.7	51.7	51.7	64	39.9	1	2	112	0.00	30.183 
20:50	51.7	51.7	51.7	63	39.5	0	5	68	0.00	30.186 
20:55	51.6	51.6	51.6	65	40.2	0	1	68	0.00	30.188 
21:00	51.4	51.4	51.4	65	40.0	0	2	68	0.00	30.196 
21:05	51.3	51.3	51.3	65	39.9	0	3	112	0.00	30.198 
21:10	51.1	51.1	51.1	65	39.7	0	2	112	0.00	30.199 
21:15	51.0	51.0	51.0	65	39.7	0	3	90	0.00	30.201 
21:20	50.8	50.8	50.8	65	39.5	0	2	90	0.00	30.203 
21:25	50.7	50.7	50.7	65	39.4	0	2	90	0.00	30.202 
21:30	50.5	50.5	50.5	65	39.2	0	2	68	0.00	30.202 
21:35	50.5	50.5	50.5	65	39.2	0	2	68	0.00	30.201 
21:40	50.4	50.4	50.4	64	38.7	1	4	90	0.00	30.202 
21:45	50.4	50.4	50.4	63	38.3	1	2	68	0.00	30.202 
21:50	50.4	50.4	50.4	64	38.7	0	2	202	0.00	30.204 
21:55	50.4	50.4	50.4	63	38.3	1	4	112	0.00	30.207 
22:00	50.2	50.2	50.2	63	38.1	1	3	112	0.00	30.212 
22:05	50.4	50.4	50.4	62	37.9	1	3	68	0.00	30.213 
22:10	50.4	50.4	50.4	62	37.9	0	2	112	0.00	30.215 
22:15	50.5	50.5	50.5	61	37.6	1	3	112	0.00	30.215 
22:20	50.5	50.5	50.5	61	37.6	0	2	112	0.00	30.213 
22:25	50.5	50.5	50.5	62	38.0	0	1	112	0.00	30.214 
22:30	50.5	50.5	50.5	62	38.0	1	2	112	0.00	30.215 
22:35	50.5	50.5	50.5	62	38.0	1	5	112	0.00	30.217 
22:40	50.5	50.5	50.5	62	38.0	1	2	90	0.00	30.219 
22:45	50.4	50.4	50.4	63	38.3	1	3	90	0.00	30.223 
22:50	50.2	50.2	50.2	64	38.5	1	3	90	0.00	30.225 
22:55	50.1	50.1	50.1	65	38.8	1	3	90	0.00	30.229 
23:00	49.9	49.9	49.9	65	38.6	1	3	90	0.00	30.231 
23:05	49.8	49.8	49.8	66	38.9	0	1	90	0.00	30.233 
23:10	49.8	49.8	49.8	67	39.3	1	2	90	0.00	30.233 
23:15	49.6	49.6	49.6	69	39.9	1	3	90	0.00	30.231 
23:20	49.6	49.6	49.6	71	40.6	1	2	90	0.00	30.234 
23:25	49.6	49.6	49.6	71	40.6	0	2	90	0.00	30.238 
23:30	49.6	49.6	49.6	70	40.2	2	5	90	0.00	30.238 
23:35	49.6	49.6	49.6	70	40.2	2	4	90	0.00	30.241 
23:40	49.5	49.5	49.5	69	39.8	1	3	90	0.00	30.241 
23:45	49.5	49.5	49.5	69	39.8	2	4	90	0.00	30.240 
23:50	49.5	49.5	49.5	69	39.8	2	6	112	0.00	30.242 
23:55	49.4	49.4	49.4	70	40.0	1	2	90	0.00	30.245 

CoCoRaHS
IN-AL-39
A2 Web Hosting
Creative Commons License
GoDaddy
Look for:

loaded 2017-10-18 22:18:54 • last modified 2010-11-18 10:43:29
Privacy PolicyDisclaimer
• wx.awcolley.com is powered by PmWiki v.2002016 •
• all content (unless otherwise noted) © 2017 A W Colley